Reading Center, NY (14876)

10:25 PM EST on January 26, 2015 (GMT -0500)
APRSWXNET Lakemont NY US | Change Station
CLOSE
Current Station
Personal Weather Station
Location: Lakemont, NY
Elevation: 515 ft
Nearby Weather Stations
Active Advisory: Winter Weather Advisory Active Notice: Public Information Statement

Elev 515 ft 42.51 °N, 76.92 °W | Updated 25 minutes ago

Snow
Snow
17 °F
Feels Like 17 °F
N
1
Wind Variable Wind from WSW
Gusts 3.0 mph

Today
High -- | Low -- °F
--% Chance of Precip.
Yesterday
High -- | Low -- °F
Precip. -- in
7:27 AM 5:13 PM
Waxing Crescent, 49% visible
Pressure 29.89 in
Visibility 2.0 miles
Clouds Overcast 2400 ft
Windchill 17 °F
Dew Point 12 °F
Humidity 82%
Rainfall 0.00 in
Snow Depth Not available.
UV 0 out of 12
Pollen .10 out of 12
Air Quality Not available.
Flu Activity Not available.
SPECI KPEO 270315Z AUTO 36005KT 2SM -SN BR OVC024 M09/M12 A2989 RMK AO2 P0000 T10941117

More Conditions Fewer Conditions

Pressure 29.89 in
Visibility 2.0 miles
Clouds Overcast 2400 ft
Windchill 17 °F
Dew Point 12 °F
Humidity 82%
Rainfall 0.00 in
Snow Depth Not available.
UV 0 out of 12
Pollen .10 out of 12
Air Quality Not available.
Flu Activity Not available.
SPECI KPEO 270315Z AUTO 36005KT 2SM -SN BR OVC024 M09/M12 A2989 RMK AO2 P0000 T10941117

More Conditions Fewer Conditions

Nowcast | as of 8:18 PM EST on January 26, 2015

Occasional light snow will continue through midnight. Most areas will see additional accumulations through midnight of an inch or less. Localized accumulations up to 2 inches will be possible over the central southern tier and Finger Lakes of New York.

×

10-Day Weather Forecast

Almanac

Astronomy

Jan. 26, 2015 Rise Set
Actual Time
Civil Twilight
Nautical Twilight
Astronomical Twilight
Moon
Length of Visible Light
Length of Day
Tomorrow will be .
, % of the Moon is Illuminated

Today's Extremes

State Highs State Lows

Community

WunderPhotos

Upload Photos

1,790,499 photos uploaded!

WunderBlogs® & News

Nearby

Air Quality

  Air Quality AQ Index Pollutant
Not available.

Snow Depth

Station Depth Elevation

Earthquake Activity

City Distance Mag. Time & Date
Minimum magnitude displayed is 2.5.

Coastal Water Temperatures

Place Temperature

Nearby Weather Stations